sensor_id;sensor_type;location;lat;lon;timestamp;pressure;altitude;pressure_sealevel;temperature;humidity
46534;BME280;32260;52.008;4.752;2023-02-11T00:01:26;103509.66;;;9.06;66.42
46534;BME280;32260;52.008;4.752;2023-02-11T00:03:53;103506.88;;;9.02;66.60
46534;BME280;32260;52.008;4.752;2023-02-11T00:06:20;103507.81;;;9.04;66.98
46534;BME280;32260;52.008;4.752;2023-02-11T00:08:47;103509.63;;;9.05;66.44
46534;BME280;32260;52.008;4.752;2023-02-11T00:11:15;103507.91;;;9.07;66.27
46534;BME280;32260;52.008;4.752;2023-02-11T00:13:43;103489.47;;;9.09;66.42
46534;BME280;32260;52.008;4.752;2023-02-11T00:16:11;103499.13;;;9.08;66.68
46534;BME280;32260;52.008;4.752;2023-02-11T00:18:38;103499.09;;;9.06;66.88
46534;BME280;32260;52.008;4.752;2023-02-11T00:21:11;103508.72;;;9.04;66.71
46534;BME280;32260;52.008;4.752;2023-02-11T00:23:38;103499.84;;;9.02;66.50
46534;BME280;32260;52.008;4.752;2023-02-11T00:26:12;103484.81;;;9.00;66.94
46534;BME280;32260;52.008;4.752;2023-02-11T00:28:39;103496.19;;;8.97;66.90
46534;BME280;32260;52.008;4.752;2023-02-11T00:31:09;103490.91;;;8.97;66.75
46534;BME280;32260;52.008;4.752;2023-02-11T00:33:35;103483.81;;;8.96;67.29
46534;BME280;32260;52.008;4.752;2023-02-11T00:36:12;103473.22;;;8.96;67.70
46534;BME280;32260;52.008;4.752;2023-02-11T00:38:39;103474.84;;;8.91;67.58
46534;BME280;32260;52.008;4.752;2023-02-11T00:41:07;103469.59;;;8.93;67.14
46534;BME280;32260;52.008;4.752;2023-02-11T00:43:34;103467.81;;;8.92;67.45
46534;BME280;32260;52.008;4.752;2023-02-11T00:46:00;103469.56;;;8.91;67.31
46534;BME280;32260;52.008;4.752;2023-02-11T00:48:26;103474.78;;;8.89;66.94
46534;BME280;32260;52.008;4.752;2023-02-11T00:50:52;103479.22;;;8.90;67.26
46534;BME280;32260;52.008;4.752;2023-02-11T00:53:18;103489.72;;;8.87;67.75
46534;BME280;32260;52.008;4.752;2023-02-11T00:55:44;103489.81;;;8.90;67.70
46534;BME280;32260;52.008;4.752;2023-02-11T00:58:11;103490.56;;;8.86;67.45
46534;BME280;32260;52.008;4.752;2023-02-11T01:00:37;103489.84;;;8.92;67.65
46534;BME280;32260;52.008;4.752;2023-02-11T01:03:03;103493.38;;;8.91;67.52
46534;BME280;32260;52.008;4.752;2023-02-11T01:05:29;103502.22;;;8.93;67.49
46534;BME280;32260;52.008;4.752;2023-02-11T01:07:55;103494.28;;;8.93;67.12
46534;BME280;32260;52.008;4.752;2023-02-11T01:10:21;103498.84;;;8.97;66.98
46534;BME280;32260;52.008;4.752;2023-02-11T01:12:47;103499.75;;;8.99;67.17
46534;BME280;32260;52.008;4.752;2023-02-11T01:15:15;103484.81;;;9.00;67.15
46534;BME280;32260;52.008;4.752;2023-02-11T01:17:41;103470.63;;;8.98;66.99
46534;BME280;32260;52.008;4.752;2023-02-11T01:20:12;103453.78;;;8.94;66.92
46534;BME280;32260;52.008;4.752;2023-02-11T01:22:39;103456.41;;;8.94;67.25
46534;BME280;32260;52.008;4.752;2023-02-11T01:25:06;103457.25;;;8.93;67.27
46534;BME280;32260;52.008;4.752;2023-02-11T01:27:32;103460.75;;;8.92;66.95
46534;BME280;32260;52.008;4.752;2023-02-11T01:29:59;103457.22;;;8.92;67.02
46534;BME280;32260;52.008;4.752;2023-02-11T01:32:25;103456.28;;;8.89;67.43
46534;BME280;32260;52.008;4.752;2023-02-11T01:34:51;103453.53;;;8.85;67.50
46534;BME280;32260;52.008;4.752;2023-02-11T01:37:17;103461.47;;;8.85;66.97
46534;BME280;32260;52.008;4.752;2023-02-11T01:39:43;103465.69;;;8.80;67.27
46534;BME280;32260;52.008;4.752;2023-02-11T01:42:19;103455.28;;;8.86;67.41
46534;BME280;32260;52.008;4.752;2023-02-11T01:44:48;103455.03;;;8.77;67.65
46534;BME280;32260;52.008;4.752;2023-02-11T01:47:14;103451.44;;;8.74;67.80
46534;BME280;32260;52.008;4.752;2023-02-11T01:49:44;103451.44;;;8.74;67.25
46534;BME280;32260;52.008;4.752;2023-02-11T01:52:17;103456.66;;;8.71;67.71
46534;BME280;32260;52.008;4.752;2023-02-11T01:54:50;103461.13;;;8.74;67.21
46534;BME280;32260;52.008;4.752;2023-02-11T01:57:40;103473.31;;;8.69;67.34
46534;BME280;32260;52.008;4.752;2023-02-11T02:00:16;103473.34;;;8.70;67.34
46534;BME280;32260;52.008;4.752;2023-02-11T02:02:51;103478.56;;;8.67;67.28
46534;BME280;32260;52.008;4.752;2023-02-11T02:08:05;103473.09;;;8.61;67.47
46534;BME280;32260;52.008;4.752;2023-02-11T02:10:36;103467.88;;;8.64;67.49
46534;BME280;32260;52.008;4.752;2023-02-11T02:13:03;103450.75;;;8.51;67.92
46534;BME280;32260;52.008;4.752;2023-02-11T02:15:32;103443.72;;;8.52;67.47
46534;BME280;32260;52.008;4.752;2023-02-11T02:18:30;103436.91;;;8.58;67.39
46534;BME280;32260;52.008;4.752;2023-02-11T02:24:37;103454.84;;;8.41;67.81
46534;BME280;32260;52.008;4.752;2023-02-11T02:27:17;103454.47;;;8.31;67.98
46534;BME280;32260;52.008;4.752;2023-02-11T02:36:08;103462.66;;;8.11;67.87
46534;BME280;32260;52.008;4.752;2023-02-11T02:38:26;103466.78;;;8.01;68.31
46534;BME280;32260;52.008;4.752;2023-02-11T02:41:06;103479.78;;;7.95;68.02
46534;BME280;32260;52.008;4.752;2023-02-11T02:43:35;103480.28;;;7.85;68.44
46534;BME280;32260;52.008;4.752;2023-02-11T02:46:26;103476.72;;;7.83;68.19
46534;BME280;32260;52.008;4.752;2023-02-11T02:48:53;103469.22;;;7.69;68.33
46534;BME280;32260;52.008;4.752;2023-02-11T02:51:44;103463.09;;;7.70;68.35
46534;BME280;32260;52.008;4.752;2023-02-11T03:00:21;103441.22;;;7.49;69.31
46534;BME280;32260;52.008;4.752;2023-02-11T03:07:00;103465.28;;;7.32;69.59
46534;BME280;32260;52.008;4.752;2023-02-11T03:08:48;103474.88;;;7.30;69.95
46534;BME280;32260;52.008;4.752;2023-02-11T03:11:18;103468.44;;;7.22;69.71
46534;BME280;32260;52.008;4.752;2023-02-11T03:13:46;103464.78;;;7.18;69.26
46534;BME280;32260;52.008;4.752;2023-02-11T03:16:18;103449.63;;;7.12;70.09
46534;BME280;32260;52.008;4.752;2023-02-11T03:18:50;103458.28;;;7.08;70.65
46534;BME280;32260;52.008;4.752;2023-02-11T03:21:19;103455.47;;;7.04;70.47
46534;BME280;32260;52.008;4.752;2023-02-11T03:23:53;103451.94;;;7.03;70.26
46534;BME280;32260;52.008;4.752;2023-02-11T03:26:26;103447.47;;;7.01;69.82
46534;BME280;32260;52.008;4.752;2023-02-11T03:29:06;103457.97;;;6.99;70.85
46534;BME280;32260;52.008;4.752;2023-02-11T03:34:15;103457.59;;;6.90;70.24
46534;BME280;32260;52.008;4.752;2023-02-11T03:36:51;103452.16;;;6.85;70.73
46534;BME280;32260;52.008;4.752;2023-02-11T03:39:26;103451.88;;;6.77;71.12
46534;BME280;32260;52.008;4.752;2023-02-11T03:41:55;103452.59;;;6.73;70.88
46534;BME280;32260;52.008;4.752;2023-02-11T03:44:25;103449.84;;;6.70;70.71
46534;BME280;32260;52.008;4.752;2023-02-11T03:46:54;103443.72;;;6.71;70.99
46534;BME280;32260;52.008;4.752;2023-02-11T03:49:21;103442.91;;;6.72;71.06
46534;BME280;32260;52.008;4.752;2023-02-11T03:51:51;103446.50;;;6.74;71.28
46534;BME280;32260;52.008;4.752;2023-02-11T03:54:23;103438.63;;;6.76;71.52
46534;BME280;32260;52.008;4.752;2023-02-11T03:56:54;103438.81;;;6.80;71.13
46534;BME280;32260;52.008;4.752;2023-02-11T03:59:21;103445.03;;;6.83;71.06
46534;BME280;32260;52.008;4.752;2023-02-11T04:01:47;103438.75;;;6.79;71.95
46534;BME280;32260;52.008;4.752;2023-02-11T04:04:14;103445.03;;;6.83;71.88
46534;BME280;32260;52.008;4.752;2023-02-11T04:06:40;103436.19;;;6.80;71.79
46534;BME280;32260;52.008;4.752;2023-02-11T04:09:06;103432.81;;;6.85;71.05
46534;BME280;32260;52.008;4.752;2023-02-11T04:11:33;103430.91;;;6.80;71.46
46534;BME280;32260;52.008;4.752;2023-02-11T04:13:59;103441.47;;;6.80;72.12
46534;BME280;32260;52.008;4.752;2023-02-11T04:16:26;103445.03;;;6.83;71.27
46534;BME280;32260;52.008;4.752;2023-02-11T04:18:52;103436.28;;;6.84;71.80
46534;BME280;32260;52.008;4.752;2023-02-11T04:21:18;103426.66;;;6.84;72.33
46534;BME280;32260;52.008;4.752;2023-02-11T04:23:44;103443.22;;;6.82;71.96
46534;BME280;32260;52.008;4.752;2023-02-11T04:26:10;103446.66;;;6.79;71.83
46534;BME280;32260;52.008;4.752;2023-02-11T04:28:36;103446.53;;;6.76;72.46
46534;BME280;32260;52.008;4.752;2023-02-11T04:31:02;103449.13;;;6.74;72.16
46534;BME280;32260;52.008;4.752;2023-02-11T04:33:28;103443.72;;;6.71;72.27
46534;BME280;32260;52.008;4.752;2023-02-11T04:35:54;103446.25;;;6.68;72.53
46534;BME280;32260;52.008;4.752;2023-02-11T04:38:21;103438.28;;;6.67;72.47
46534;BME280;32260;52.008;4.752;2023-02-11T04:40:49;103438.22;;;6.65;72.31
46534;BME280;32260;52.008;4.752;2023-02-11T04:43:15;103432.03;;;6.63;72.41
46534;BME280;32260;52.008;4.752;2023-02-11T04:45:41;103435.59;;;6.65;72.74
46534;BME280;32260;52.008;4.752;2023-02-11T04:48:07;103435.50;;;6.62;72.29
46534;BME280;32260;52.008;4.752;2023-02-11T04:50:33;103438.97;;;6.61;72.50
46534;BME280;32260;52.008;4.752;2023-02-11T04:52:59;103427.53;;;6.60;72.32
46534;BME280;32260;52.008;4.752;2023-02-11T04:55:25;103439.56;;;6.54;72.50
46534;BME280;32260;52.008;4.752;2023-02-11T04:57:51;103444.97;;;6.57;72.70
46534;BME280;32260;52.008;4.752;2023-02-11T05:00:18;103437.75;;;6.53;73.47
46534;BME280;32260;52.008;4.752;2023-02-11T05:02:44;103437.75;;;6.53;72.69
46534;BME280;32260;52.008;4.752;2023-02-11T05:05:10;103435.50;;;6.62;72.56
46534;BME280;32260;52.008;4.752;2023-02-11T05:07:38;103430.22;;;6.62;72.75
46534;BME280;32260;52.008;4.752;2023-02-11T05:10:05;103439.94;;;6.63;72.70
46534;BME280;32260;52.008;4.752;2023-02-11T05:12:31;103442.56;;;6.63;72.94
46534;BME280;32260;52.008;4.752;2023-02-11T05:14:57;103447.81;;;6.63;72.54
46534;BME280;32260;52.008;4.752;2023-02-11T05:17:23;103454.63;;;6.58;73.32
46534;BME280;32260;52.008;4.752;2023-02-11T05:19:49;103445.91;;;6.59;73.14
46534;BME280;32260;52.008;4.752;2023-02-11T05:22:15;103455.66;;;6.61;73.46
46534;BME280;32260;52.008;4.752;2023-02-11T05:24:41;103456.38;;;6.57;73.21
46534;BME280;32260;52.008;4.752;2023-02-11T05:27:07;103464.09;;;6.53;73.32
46534;BME280;32260;52.008;4.752;2023-02-11T05:29:34;103468.56;;;6.55;73.16
46534;BME280;32260;52.008;4.752;2023-02-11T05:32:00;103466.72;;;6.53;72.90
46534;BME280;32260;52.008;4.752;2023-02-11T05:34:26;103469.31;;;6.51;73.11
46534;BME280;32260;52.008;4.752;2023-02-11T05:36:52;103464.28;;;6.57;73.05
46534;BME280;32260;52.008;4.752;2023-02-11T05:39:18;103465.31;;;6.61;73.37
46534;BME280;32260;52.008;4.752;2023-02-11T05:41:45;103456.63;;;6.63;73.09
46534;BME280;32260;52.008;4.752;2023-02-11T05:44:11;103463.75;;;6.66;73.75
46534;BME280;32260;52.008;4.752;2023-02-11T05:46:37;103456.91;;;6.71;73.39
46534;BME280;32260;52.008;4.752;2023-02-11T05:49:03;103463.19;;;6.75;73.47
46534;BME280;32260;52.008;4.752;2023-02-11T05:51:29;103451.09;;;6.80;73.13
46534;BME280;32260;52.008;4.752;2023-02-11T05:53:55;103459.03;;;6.82;73.06
46534;BME280;32260;52.008;4.752;2023-02-11T05:56:22;103461.66;;;6.82;73.03
46534;BME280;32260;52.008;4.752;2023-02-11T05:58:48;103463.41;;;6.81;73.37
46534;BME280;32260;52.008;4.752;2023-02-11T06:01:14;103459.00;;;6.80;72.93
46534;BME280;32260;52.008;4.752;2023-02-11T06:03:40;103460.75;;;6.79;73.40
46534;BME280;32260;52.008;4.752;2023-02-11T06:06:10;103459.78;;;6.77;73.37
46534;BME280;32260;52.008;4.752;2023-02-11T06:08:36;103460.50;;;6.73;73.40
46534;BME280;32260;52.008;4.752;2023-02-11T06:11:02;103464.75;;;6.70;73.54
46534;BME280;32260;52.008;4.752;2023-02-11T06:13:28;103461.09;;;6.66;73.19
46534;BME280;32260;52.008;4.752;2023-02-11T06:15:56;103466.38;;;6.66;73.05
46534;BME280;32260;52.008;4.752;2023-02-11T06:18:22;103462.91;;;6.67;73.14
46534;BME280;32260;52.008;4.752;2023-02-11T06:20:49;103458.59;;;6.69;73.36
46534;BME280;32260;52.008;4.752;2023-02-11T06:23:15;103463.19;;;6.75;73.33
46534;BME280;32260;52.008;4.752;2023-02-11T06:25:41;103458.84;;;6.75;73.72
46534;BME280;32260;52.008;4.752;2023-02-11T06:28:07;103459.03;;;6.82;73.65
46534;BME280;32260;52.008;4.752;2023-02-11T06:30:33;103466.91;;;6.80;73.80
46534;BME280;32260;52.008;4.752;2023-02-11T06:33:00;103466.19;;;6.84;73.64
46534;BME280;32260;52.008;4.752;2023-02-11T06:35:26;103469.81;;;6.88;73.27
46534;BME280;32260;52.008;4.752;2023-02-11T06:37:52;103467.25;;;6.89;73.90
46534;BME280;32260;52.008;4.752;2023-02-11T06:40:20;103462.88;;;6.90;73.88
46534;BME280;32260;52.008;4.752;2023-02-11T06:42:46;103463.00;;;6.93;73.38
46534;BME280;32260;52.008;4.752;2023-02-11T06:45:12;103462.22;;;6.95;73.22
46534;BME280;32260;52.008;4.752;2023-02-11T06:47:39;103464.84;;;6.95;73.45
46534;BME280;32260;52.008;4.752;2023-02-11T06:50:06;103464.13;;;7.00;73.33
46534;BME280;32260;52.008;4.752;2023-02-11T06:52:35;103475.69;;;7.03;73.50
46534;BME280;32260;52.008;4.752;2023-02-11T06:55:01;103473.28;;;7.09;73.17
46534;BME280;32260;52.008;4.752;2023-02-11T06:57:28;103482.09;;;7.11;73.16
46534;BME280;32260;52.008;4.752;2023-02-11T06:59:55;103481.41;;;7.16;73.80
46534;BME280;32260;52.008;4.752;2023-02-11T07:02:21;103482.41;;;7.19;73.12
46534;BME280;32260;52.008;4.752;2023-02-11T07:04:47;103480.63;;;7.18;73.50
46534;BME280;32260;52.008;4.752;2023-02-11T07:07:13;103476.44;;;7.25;73.49
46534;BME280;32260;52.008;4.752;2023-02-11T07:09:39;103479.16;;;7.26;73.80
46534;BME280;32260;52.008;4.752;2023-02-11T07:12:05;103474.88;;;7.30;73.92
46534;BME280;32260;52.008;4.752;2023-02-11T07:14:31;103481.94;;;7.31;73.80
46534;BME280;32260;52.008;4.752;2023-02-11T07:16:58;103483.75;;;7.32;73.70
46534;BME280;32260;52.008;4.752;2023-02-11T07:19:24;103485.66;;;7.36;73.69
46534;BME280;32260;52.008;4.752;2023-02-11T07:21:50;103488.38;;;7.38;73.80
46534;BME280;32260;52.008;4.752;2023-02-11T07:24:16;103476.88;;;7.37;74.40
46534;BME280;32260;52.008;4.752;2023-02-11T07:26:42;103479.69;;;7.42;73.94
46534;BME280;32260;52.008;4.752;2023-02-11T07:29:09;103485.78;;;7.39;73.15
46534;BME280;32260;52.008;4.752;2023-02-11T07:31:35;103489.25;;;7.38;73.12
46534;BME280;32260;52.008;4.752;2023-02-11T07:34:01;103498.78;;;7.35;74.03
46534;BME280;32260;52.008;4.752;2023-02-11T07:36:29;103502.34;;;7.35;73.83
46534;BME280;32260;52.008;4.752;2023-02-11T07:38:57;103499.56;;;7.32;73.86
46534;BME280;32260;52.008;4.752;2023-02-11T07:41:24;103506.66;;;7.33;74.01
46534;BME280;32260;52.008;4.752;2023-02-11T07:43:51;103503.22;;;7.36;73.64
46534;BME280;32260;52.008;4.752;2023-02-11T07:46:20;103504.06;;;7.35;73.42
46534;BME280;32260;52.008;4.752;2023-02-11T07:48:46;103506.66;;;7.33;73.14
46534;BME280;32260;52.008;4.752;2023-02-11T07:51:15;103505.81;;;7.34;73.46
46534;BME280;32260;52.008;4.752;2023-02-11T07:53:42;103505.84;;;7.36;73.84
46534;BME280;32260;52.008;4.752;2023-02-11T07:56:10;103510.34;;;7.38;73.45
46534;BME280;32260;52.008;4.752;2023-02-11T07:58:37;103511.34;;;7.42;73.65
46534;BME280;32260;52.008;4.752;2023-02-11T08:01:05;103512.25;;;7.42;73.40
46534;BME280;32260;52.008;4.752;2023-02-11T08:03:32;103519.31;;;7.43;73.63
46534;BME280;32260;52.008;4.752;2023-02-11T08:06:03;103519.53;;;7.50;73.72
46534;BME280;32260;52.008;4.752;2023-02-11T08:08:30;103516.06;;;7.51;73.54
46534;BME280;32260;52.008;4.752;2023-02-11T08:10:56;103520.59;;;7.55;73.41
46534;BME280;32260;52.008;4.752;2023-02-11T08:13:22;103523.38;;;7.58;73.74
46534;BME280;32260;52.008;4.752;2023-02-11T08:15:48;103523.47;;;7.61;73.25
46534;BME280;32260;52.008;4.752;2023-02-11T08:18:14;103523.59;;;7.64;73.47
46534;BME280;32260;52.008;4.752;2023-02-11T08:20:40;103522.88;;;7.70;73.29
46534;BME280;32260;52.008;4.752;2023-02-11T08:23:07;103529.06;;;7.70;74.04
46534;BME280;32260;52.008;4.752;2023-02-11T08:25:33;103532.84;;;7.78;74.26
46534;BME280;32260;52.008;4.752;2023-02-11T08:27:59;103536.50;;;7.82;74.26
46534;BME280;32260;52.008;4.752;2023-02-11T08:30:25;103529.72;;;7.89;73.75
46534;BME280;32260;52.008;4.752;2023-02-11T08:32:51;103526.38;;;7.94;73.90
46534;BME280;32260;52.008;4.752;2023-02-11T08:35:17;103540.59;;;7.98;74.25
46534;BME280;32260;52.008;4.752;2023-02-11T08:37:46;103544.31;;;8.05;73.85
46534;BME280;32260;52.008;4.752;2023-02-11T08:40:12;103548.97;;;8.12;73.37
46534;BME280;32260;52.008;4.752;2023-02-11T08:42:38;103544.69;;;8.16;74.07
46534;BME280;32260;52.008;4.752;2023-02-11T08:45:05;103539.56;;;8.20;74.19
46534;BME280;32260;52.008;4.752;2023-02-11T08:47:31;103544.13;;;8.26;73.47
46534;BME280;32260;52.008;4.752;2023-02-11T08:49:57;103547.91;;;8.33;73.39
46534;BME280;32260;52.008;4.752;2023-02-11T08:52:23;103552.47;;;8.38;73.34
46534;BME280;32260;52.008;4.752;2023-02-11T08:54:49;103552.66;;;8.45;73.70
46534;BME280;32260;52.008;4.752;2023-02-11T08:57:15;103553.75;;;8.50;73.34
46534;BME280;32260;52.008;4.752;2023-02-11T08:59:41;103544.13;;;8.52;74.14
46534;BME280;32260;52.008;4.752;2023-02-11T09:02:11;103544.50;;;8.63;73.69
46534;BME280;32260;52.008;4.752;2023-02-11T09:04:41;103544.72;;;8.70;73.85
46534;BME280;32260;52.008;4.752;2023-02-11T09:07:12;103550.13;;;8.73;74.11
46534;BME280;32260;52.008;4.752;2023-02-11T09:09:38;103550.34;;;8.81;73.44
46534;BME280;32260;52.008;4.752;2023-02-11T09:12:04;103556.81;;;8.91;73.69
46534;BME280;32260;52.008;4.752;2023-02-11T09:14:30;103557.88;;;8.98;73.88
46534;BME280;32260;52.008;4.752;2023-02-11T09:16:57;103557.19;;;9.03;73.95
46534;BME280;32260;52.008;4.752;2023-02-11T09:19:23;103570.69;;;9.13;73.90
46534;BME280;32260;52.008;4.752;2023-02-11T09:21:49;103563.00;;;9.22;73.40
46534;BME280;32260;52.008;4.752;2023-02-11T09:24:21;103561.59;;;9.33;73.63
46534;BME280;32260;52.008;4.752;2023-02-11T09:26:47;103554.53;;;9.34;73.71
46534;BME280;32260;52.008;4.752;2023-02-11T09:29:14;103564.56;;;9.46;73.50
46534;BME280;32260;52.008;4.752;2023-02-11T09:31:40;103563.97;;;9.54;73.79
46534;BME280;32260;52.008;4.752;2023-02-11T09:34:07;103566.72;;;9.59;73.54
46534;BME280;32260;52.008;4.752;2023-02-11T09:36:36;103560.84;;;9.69;73.79
46534;BME280;32260;52.008;4.752;2023-02-11T09:39:04;103562.03;;;9.81;73.30
46534;BME280;32260;52.008;4.752;2023-02-11T09:44:19;103573.88;;;9.97;73.12
46534;BME280;32260;52.008;4.752;2023-02-11T09:46:52;103578.31;;;9.96;72.87
46534;BME280;32260;52.008;4.752;2023-02-11T09:49:24;103574.03;;;10.01;72.81
46534;BME280;32260;52.008;4.752;2023-02-11T09:52:07;103565.34;;;10.07;72.88
46534;BME280;32260;52.008;4.752;2023-02-11T09:57:33;103566.34;;;10.11;72.76
46534;BME280;32260;52.008;4.752;2023-02-11T10:00:02;103565.56;;;10.16;72.45
46534;BME280;32260;52.008;4.752;2023-02-11T10:05:45;103572.97;;;10.30;72.34
46534;BME280;32260;52.008;4.752;2023-02-11T10:09:44;103581.25;;;10.41;72.28
46534;BME280;32260;52.008;4.752;2023-02-11T10:11:33;103586.59;;;10.44;72.36
46534;BME280;32260;52.008;4.752;2023-02-11T10:19:34;103601.41;;;10.71;72.13
46534;BME280;32260;52.008;4.752;2023-02-11T10:24:53;103605.34;;;10.88;72.14
46534;BME280;32260;52.008;4.752;2023-02-11T10:27:32;103605.50;;;10.94;71.12
46534;BME280;32260;52.008;4.752;2023-02-11T10:30:03;103603.75;;;10.96;71.40
46534;BME280;32260;52.008;4.752;2023-02-11T10:32:47;103610.16;;;11.06;71.42
46534;BME280;32260;52.008;4.752;2023-02-11T10:35:17;103606.69;;;11.09;71.60
46534;BME280;32260;52.008;4.752;2023-02-11T10:37:46;103613.03;;;11.15;71.07
46534;BME280;32260;52.008;4.752;2023-02-11T10:40:16;103617.63;;;11.23;70.97
46534;BME280;32260;52.008;4.752;2023-02-11T10:42:47;103630.19;;;11.31;70.85
46534;BME280;32260;52.008;4.752;2023-02-11T10:45:31;103629.66;;;11.48;71.10
46534;BME280;32260;52.008;4.752;2023-02-11T10:47:58;103634.22;;;11.55;71.03
46534;BME280;32260;52.008;4.752;2023-02-11T10:50:28;103634.44;;;11.66;69.51
46534;BME280;32260;52.008;4.752;2023-02-11T10:53:14;103644.47;;;11.81;69.20
46534;BME280;32260;52.008;4.752;2023-02-11T10:55:49;103637.44;;;11.83;69.34
46534;BME280;32260;52.008;4.752;2023-02-11T10:58:31;103634.94;;;11.92;69.91
46534;BME280;32260;52.008;4.752;2023-02-11T11:01:03;103633.22;;;11.94;69.81
46534;BME280;32260;52.008;4.752;2023-02-11T11:03:35;103637.97;;;12.09;68.91
46534;BME280;32260;52.008;4.752;2023-02-11T11:06:07;103640.72;;;12.16;68.60
46534;BME280;32260;52.008;4.752;2023-02-11T11:08:50;103632.88;;;12.23;68.57
46534;BME280;32260;52.008;4.752;2023-02-11T11:11:18;103640.75;;;12.17;68.65
46534;BME280;32260;52.008;4.752;2023-02-11T11:16:31;103643.16;;;12.03;64.79
46534;BME280;32260;52.008;4.752;2023-02-11T11:19:18;103649.59;;;12.16;65.17
46534;BME280;32260;52.008;4.752;2023-02-11T11:24:24;103649.59;;;12.16;64.94
46534;BME280;32260;52.008;4.752;2023-02-11T11:26:54;103646.13;;;12.19;65.71
46534;BME280;32260;52.008;4.752;2023-02-11T11:29:42;103646.25;;;12.26;64.61
46534;BME280;32260;52.008;4.752;2023-02-11T11:32:15;103651.50;;;12.23;64.15
46534;BME280;32260;52.008;4.752;2023-02-11T11:34:50;103646.25;;;12.26;65.08
46534;BME280;32260;52.008;4.752;2023-02-11T11:37:35;103648.06;;;12.27;64.45
46534;BME280;32260;52.008;4.752;2023-02-11T11:42:46;103653.16;;;12.17;62.98
46534;BME280;32260;52.008;4.752;2023-02-11T11:45:26;103647.88;;;12.18;63.99
46534;BME280;32260;52.008;4.752;2023-02-11T11:56:12;103648.16;;;12.34;63.12
46534;BME280;32260;52.008;4.752;2023-02-11T11:58:40;103650.84;;;12.37;62.66
46534;BME280;32260;52.008;4.752;2023-02-11T12:05:22;103646.81;;;12.60;62.23
46534;BME280;32260;52.008;4.752;2023-02-11T12:16:15;103652.06;;;12.56;61.64
46534;BME280;32260;52.008;4.752;2023-02-11T12:21:27;103640.63;;;12.61;61.61
46534;BME280;32260;52.008;4.752;2023-02-11T12:24:25;103641.50;;;12.60;60.77
46534;BME280;32260;52.008;4.752;2023-02-11T12:27:02;103649.41;;;12.56;60.06
46534;BME280;32260;52.008;4.752;2023-02-11T12:29:56;103641.56;;;12.64;60.36
46534;BME280;32260;52.008;4.752;2023-02-11T12:32:49;103638.81;;;12.57;59.21
46534;BME280;32260;52.008;4.752;2023-02-11T12:35:42;103644.34;;;12.70;60.64
46534;BME280;32260;52.008;4.752;2023-02-11T12:41:08;103642.66;;;12.78;59.79
46534;BME280;32260;52.008;4.752;2023-02-11T12:43:42;103656.94;;;12.83;60.00
46534;BME280;32260;52.008;4.752;2023-02-11T12:55:18;103640.09;;;12.84;59.02
46534;BME280;32260;52.008;4.752;2023-02-11T12:57:47;103641.03;;;12.85;58.85
46534;BME280;32260;52.008;4.752;2023-02-11T13:00:21;103648.84;;;12.75;57.97
46534;BME280;32260;52.008;4.752;2023-02-11T13:02:53;103648.06;;;12.81;58.57
46534;BME280;32260;52.008;4.752;2023-02-11T13:06:26;103645.34;;;12.79;58.36
46534;BME280;32260;52.008;4.752;2023-02-11T13:08:31;103628.53;;;12.82;58.11
46534;BME280;32260;52.008;4.752;2023-02-11T13:11:01;103635.44;;;12.71;58.10
46534;BME280;32260;52.008;4.752;2023-02-11T13:16:33;103633.72;;;12.73;58.58
46534;BME280;32260;52.008;4.752;2023-02-11T13:19:13;103631.94;;;12.72;58.28
46534;BME280;32260;52.008;4.752;2023-02-11T13:27:29;103612.56;;;12.81;58.62
46534;BME280;32260;52.008;4.752;2023-02-11T13:35:36;103631.72;;;12.59;58.90
46534;BME280;32260;52.008;4.752;2023-02-11T13:38:18;103624.72;;;12.65;58.35
46534;BME280;32260;52.008;4.752;2023-02-11T13:41:00;103629.16;;;12.66;59.00
46534;BME280;32260;52.008;4.752;2023-02-11T13:43:27;103622.84;;;12.57;58.44
46534;BME280;32260;52.008;4.752;2023-02-11T13:46:00;103623.72;;;12.58;58.22
46534;BME280;32260;52.008;4.752;2023-02-11T13:51:09;103606.06;;;12.61;58.88
46534;BME280;32260;52.008;4.752;2023-02-11T13:53:55;103616.91;;;12.74;58.73
46534;BME280;32260;52.008;4.752;2023-02-11T13:56:31;103602.63;;;12.69;58.16
46534;BME280;32260;52.008;4.752;2023-02-11T13:59:01;103615.03;;;12.68;58.11
46534;BME280;32260;52.008;4.752;2023-02-11T14:04:25;103621.38;;;12.76;58.58
46534;BME280;32260;52.008;4.752;2023-02-11T14:07:30;103626.78;;;12.83;58.60
46534;BME280;32260;52.008;4.752;2023-02-11T14:13:25;103624.88;;;12.74;58.92
46534;BME280;32260;52.008;4.752;2023-02-11T14:16:13;103617.78;;;12.76;58.90
46534;BME280;32260;52.008;4.752;2023-02-11T14:21:36;103616.97;;;12.78;59.15
46534;BME280;32260;52.008;4.752;2023-02-11T14:26:49;103621.47;;;12.84;58.74
46534;BME280;32260;52.008;4.752;2023-02-11T14:32:16;103622.94;;;12.64;59.02
46534;BME280;32260;52.008;4.752;2023-02-11T14:38:02;103633.50;;;12.57;58.48
46534;BME280;32260;52.008;4.752;2023-02-11T14:40:39;103630.75;;;12.53;58.31
46534;BME280;32260;52.008;4.752;2023-02-11T14:43:19;103634.34;;;12.55;58.84
46534;BME280;32260;52.008;4.752;2023-02-11T14:45:50;103638.72;;;12.51;58.82
46534;BME280;32260;52.008;4.752;2023-02-11T14:48:19;103639.72;;;12.59;58.41
46534;BME280;32260;52.008;4.752;2023-02-11T14:50:52;103637.88;;;12.54;58.78
46534;BME280;32260;52.008;4.752;2023-02-11T14:53:21;103641.25;;;12.45;59.06
46534;BME280;32260;52.008;4.752;2023-02-11T14:55:51;103639.47;;;12.44;59.48
46534;BME280;32260;52.008;4.752;2023-02-11T14:58:22;103637.59;;;12.38;58.71
46534;BME280;32260;52.008;4.752;2023-02-11T15:06:16;103648.94;;;12.29;59.64
46534;BME280;32260;52.008;4.752;2023-02-11T15:08:49;103650.72;;;12.27;58.90
46534;BME280;32260;52.008;4.752;2023-02-11T15:11:17;103653.56;;;12.40;59.53
46534;BME280;32260;52.008;4.752;2023-02-11T15:13:44;103642.66;;;12.24;58.99
46534;BME280;32260;52.008;4.752;2023-02-11T15:16:17;103648.91;;;12.26;59.20
46534;BME280;32260;52.008;4.752;2023-02-11T15:18:50;103654.22;;;12.26;59.46